Tupelo, Mississippi
Current Conditions -  °F | °C
As of 5:53 PM on Sunday 21 Dec 2014 (Local Time) from KTUP Reporting Station
Clear Clear  
Wind Chill: 48°   Ceiling: Unl
Heat Index: 48°   Visibility: 10mi
Dew Point: 39°   Wind: 3mph
Humidity: 71%   Direction: 130°SE
Pressure: 30.04"   Gusts: NA
Location:  34.26°N, 88.71°W
Report Text: KTUP 212353Z 13003KT 10SM CLR 09/04 A3004 RMK AO2 SLP172 T00890039 10133 20089 57007
Loading
Personal Weather Stations






























Interactive Weather Map New forecast layout! Learn more

10-Day Weather Forecast

Advertisements
Track Severe Weather on mobile